sensor_id;sensor_type;location;lat;lon;timestamp;temperature;humidity
5009;DHT22;2523;51.058;6.922;2023-11-21T00:02:20;9.10;99.90
5009;DHT22;2523;51.058;6.922;2023-11-21T00:04:45;9.10;99.90
5009;DHT22;2523;51.058;6.922;2023-11-21T00:07:11;9.10;99.90
5009;DHT22;2523;51.058;6.922;2023-11-21T00:09:37;9.00;99.90
5009;DHT22;2523;51.058;6.922;2023-11-21T00:12:02;9.10;99.90
5009;DHT22;2523;51.058;6.922;2023-11-21T00:14:28;9.00;99.90
5009;DHT22;2523;51.058;6.922;2023-11-21T00:16:54;9.00;99.90
5009;DHT22;2523;51.058;6.922;2023-11-21T00:19:20;9.00;99.90
5009;DHT22;2523;51.058;6.922;2023-11-21T00:21:45;9.00;99.90
5009;DHT22;2523;51.058;6.922;2023-11-21T00:24:12;9.00;99.90
5009;DHT22;2523;51.058;6.922;2023-11-21T00:26:39;9.00;99.90
5009;DHT22;2523;51.058;6.922;2023-11-21T00:29:30;9.00;99.90
5009;DHT22;2523;51.058;6.922;2023-11-21T00:31:56;9.00;99.90
5009;DHT22;2523;51.058;6.922;2023-11-21T00:34:21;9.00;99.90
5009;DHT22;2523;51.058;6.922;2023-11-21T00:36:47;9.00;99.90
5009;DHT22;2523;51.058;6.922;2023-11-21T00:39:12;9.00;99.90
5009;DHT22;2523;51.058;6.922;2023-11-21T00:41:38;9.00;99.90
5009;DHT22;2523;51.058;6.922;2023-11-21T00:44:04;9.00;99.90
5009;DHT22;2523;51.058;6.922;2023-11-21T00:46:29;8.90;99.90
5009;DHT22;2523;51.058;6.922;2023-11-21T00:48:55;8.80;99.90
5009;DHT22;2523;51.058;6.922;2023-11-21T00:51:22;8.80;99.90
5009;DHT22;2523;51.058;6.922;2023-11-21T00:53:48;8.70;99.90
5009;DHT22;2523;51.058;6.922;2023-11-21T00:56:13;8.70;99.90
5009;DHT22;2523;51.058;6.922;2023-11-21T00:58:40;8.60;99.90
5009;DHT22;2523;51.058;6.922;2023-11-21T01:01:11;8.60;99.90
5009;DHT22;2523;51.058;6.922;2023-11-21T01:03:37;8.60;99.90
5009;DHT22;2523;51.058;6.922;2023-11-21T01:06:03;8.50;99.90
5009;DHT22;2523;51.058;6.922;2023-11-21T01:08:30;8.50;99.90
5009;DHT22;2523;51.058;6.922;2023-11-21T01:10:56;8.40;99.90
5009;DHT22;2523;51.058;6.922;2023-11-21T01:13:22;8.40;99.90
5009;DHT22;2523;51.058;6.922;2023-11-21T01:15:47;8.40;99.90
5009;DHT22;2523;51.058;6.922;2023-11-21T01:18:13;8.30;99.90
5009;DHT22;2523;51.058;6.922;2023-11-21T01:20:38;8.30;99.90
5009;DHT22;2523;51.058;6.922;2023-11-21T01:23:04;8.30;99.90
5009;DHT22;2523;51.058;6.922;2023-11-21T01:25:30;8.30;99.90
5009;DHT22;2523;51.058;6.922;2023-11-21T01:27:55;8.30;99.90
5009;DHT22;2523;51.058;6.922;2023-11-21T01:30:21;8.30;99.90
5009;DHT22;2523;51.058;6.922;2023-11-21T01:32:47;8.30;99.90
5009;DHT22;2523;51.058;6.922;2023-11-21T01:35:13;8.30;99.90
5009;DHT22;2523;51.058;6.922;2023-11-21T01:37:38;8.20;99.90
5009;DHT22;2523;51.058;6.922;2023-11-21T01:40:04;8.20;99.90
5009;DHT22;2523;51.058;6.922;2023-11-21T01:42:34;8.10;99.90
5009;DHT22;2523;51.058;6.922;2023-11-21T01:45:00;8.10;99.90
5009;DHT22;2523;51.058;6.922;2023-11-21T01:47:31;8.10;99.90
5009;DHT22;2523;51.058;6.922;2023-11-21T01:49:57;8.10;99.90
5009;DHT22;2523;51.058;6.922;2023-11-21T01:52:23;8.00;99.90
5009;DHT22;2523;51.058;6.922;2023-11-21T01:54:49;8.00;99.90
5009;DHT22;2523;51.058;6.922;2023-11-21T01:57:15;7.90;99.90
5009;DHT22;2523;51.058;6.922;2023-11-21T01:59:42;7.90;99.90
5009;DHT22;2523;51.058;6.922;2023-11-21T02:02:08;7.90;99.90
5009;DHT22;2523;51.058;6.922;2023-11-21T02:04:35;8.00;99.90
5009;DHT22;2523;51.058;6.922;2023-11-21T02:07:04;8.00;99.90
5009;DHT22;2523;51.058;6.922;2023-11-21T02:09:31;8.10;99.90
5009;DHT22;2523;51.058;6.922;2023-11-21T02:11:58;8.10;99.90
5009;DHT22;2523;51.058;6.922;2023-11-21T02:14:25;8.20;99.90
5009;DHT22;2523;51.058;6.922;2023-11-21T02:16:52;8.20;99.90
5009;DHT22;2523;51.058;6.922;2023-11-21T02:19:19;8.30;99.90
5009;DHT22;2523;51.058;6.922;2023-11-21T02:21:49;8.30;99.90
5009;DHT22;2523;51.058;6.922;2023-11-21T02:24:20;8.30;99.90
5009;DHT22;2523;51.058;6.922;2023-11-21T02:26:45;8.30;99.90
5009;DHT22;2523;51.058;6.922;2023-11-21T02:29:11;8.30;99.90
5009;DHT22;2523;51.058;6.922;2023-11-21T02:31:38;8.40;99.90
5009;DHT22;2523;51.058;6.922;2023-11-21T02:34:15;8.40;99.90
5009;DHT22;2523;51.058;6.922;2023-11-21T02:36:42;8.40;99.90
5009;DHT22;2523;51.058;6.922;2023-11-21T02:39:08;8.40;99.90
5009;DHT22;2523;51.058;6.922;2023-11-21T02:41:34;8.40;99.90
5009;DHT22;2523;51.058;6.922;2023-11-21T02:44:01;8.40;99.90
5009;DHT22;2523;51.058;6.922;2023-11-21T02:46:26;8.50;99.90
5009;DHT22;2523;51.058;6.922;2023-11-21T02:48:52;8.50;99.90
5009;DHT22;2523;51.058;6.922;2023-11-21T02:51:21;8.50;99.90
5009;DHT22;2523;51.058;6.922;2023-11-21T02:53:47;8.50;99.90
5009;DHT22;2523;51.058;6.922;2023-11-21T02:56:13;8.50;99.90
5009;DHT22;2523;51.058;6.922;2023-11-21T02:58:41;8.50;99.90
5009;DHT22;2523;51.058;6.922;2023-11-21T03:01:09;8.50;99.90
5009;DHT22;2523;51.058;6.922;2023-11-21T03:03:36;8.50;99.90
5009;DHT22;2523;51.058;6.922;2023-11-21T03:06:04;8.50;99.90
5009;DHT22;2523;51.058;6.922;2023-11-21T03:08:30;8.50;99.90
5009;DHT22;2523;51.058;6.922;2023-11-21T03:10:55;8.50;99.90
5009;DHT22;2523;51.058;6.922;2023-11-21T03:13:21;8.50;99.90
5009;DHT22;2523;51.058;6.922;2023-11-21T03:15:46;8.50;99.90
5009;DHT22;2523;51.058;6.922;2023-11-21T03:18:13;8.60;99.90
5009;DHT22;2523;51.058;6.922;2023-11-21T03:20:38;8.60;99.90
5009;DHT22;2523;51.058;6.922;2023-11-21T03:23:04;8.60;99.90
5009;DHT22;2523;51.058;6.922;2023-11-21T03:25:30;8.60;99.90
5009;DHT22;2523;51.058;6.922;2023-11-21T03:27:56;8.60;99.90
5009;DHT22;2523;51.058;6.922;2023-11-21T03:30:22;8.70;99.90
5009;DHT22;2523;51.058;6.922;2023-11-21T03:32:47;8.60;99.90
5009;DHT22;2523;51.058;6.922;2023-11-21T03:35:13;8.70;99.90
5009;DHT22;2523;51.058;6.922;2023-11-21T03:37:38;8.70;99.90
5009;DHT22;2523;51.058;6.922;2023-11-21T03:40:07;8.70;99.90
5009;DHT22;2523;51.058;6.922;2023-11-21T03:42:34;8.80;99.90
5009;DHT22;2523;51.058;6.922;2023-11-21T03:45:00;8.80;99.90
5009;DHT22;2523;51.058;6.922;2023-11-21T03:47:27;8.70;99.90
5009;DHT22;2523;51.058;6.922;2023-11-21T03:49:53;8.80;99.90
5009;DHT22;2523;51.058;6.922;2023-11-21T03:52:18;8.80;99.90
5009;DHT22;2523;51.058;6.922;2023-11-21T03:54:44;8.80;99.90
5009;DHT22;2523;51.058;6.922;2023-11-21T03:57:10;8.80;99.90
5009;DHT22;2523;51.058;6.922;2023-11-21T03:59:36;8.80;99.90
5009;DHT22;2523;51.058;6.922;2023-11-21T04:02:01;8.80;99.90
5009;DHT22;2523;51.058;6.922;2023-11-21T04:04:27;8.70;99.90
5009;DHT22;2523;51.058;6.922;2023-11-21T04:06:53;8.80;99.90
5009;DHT22;2523;51.058;6.922;2023-11-21T04:09:19;8.80;99.90
5009;DHT22;2523;51.058;6.922;2023-11-21T04:11:44;8.80;99.90
5009;DHT22;2523;51.058;6.922;2023-11-21T04:14:11;8.70;99.90
5009;DHT22;2523;51.058;6.922;2023-11-21T04:16:36;8.70;99.90
5009;DHT22;2523;51.058;6.922;2023-11-21T04:19:02;8.80;99.90
5009;DHT22;2523;51.058;6.922;2023-11-21T04:21:27;8.80;99.90
5009;DHT22;2523;51.058;6.922;2023-11-21T04:23:53;8.80;99.90
5009;DHT22;2523;51.058;6.922;2023-11-21T04:26:18;8.70;99.90
5009;DHT22;2523;51.058;6.922;2023-11-21T04:28:44;8.70;99.90
5009;DHT22;2523;51.058;6.922;2023-11-21T04:31:10;8.80;99.90
5009;DHT22;2523;51.058;6.922;2023-11-21T04:33:35;8.70;99.90
5009;DHT22;2523;51.058;6.922;2023-11-21T04:36:01;8.80;99.90
5009;DHT22;2523;51.058;6.922;2023-11-21T04:38:27;8.70;99.90
5009;DHT22;2523;51.058;6.922;2023-11-21T04:40:52;8.70;99.90
5009;DHT22;2523;51.058;6.922;2023-11-21T04:43:18;8.70;99.90
5009;DHT22;2523;51.058;6.922;2023-11-21T04:45:43;8.70;99.90
5009;DHT22;2523;51.058;6.922;2023-11-21T04:48:09;8.60;99.90
5009;DHT22;2523;51.058;6.922;2023-11-21T04:50:35;8.60;99.90
5009;DHT22;2523;51.058;6.922;2023-11-21T04:53:00;8.60;99.90
5009;DHT22;2523;51.058;6.922;2023-11-21T04:55:26;8.60;99.90
5009;DHT22;2523;51.058;6.922;2023-11-21T04:57:53;8.60;99.90
5009;DHT22;2523;51.058;6.922;2023-11-21T05:00:19;8.60;99.90
5009;DHT22;2523;51.058;6.922;2023-11-21T05:02:46;8.60;99.90
5009;DHT22;2523;51.058;6.922;2023-11-21T05:05:12;8.60;99.90
5009;DHT22;2523;51.058;6.922;2023-11-21T05:07:39;8.70;99.90
5009;DHT22;2523;51.058;6.922;2023-11-21T05:10:06;8.70;99.90
5009;DHT22;2523;51.058;6.922;2023-11-21T05:12:36;8.70;99.90
5009;DHT22;2523;51.058;6.922;2023-11-21T05:15:04;8.70;99.90
5009;DHT22;2523;51.058;6.922;2023-11-21T05:17:33;8.70;99.90
5009;DHT22;2523;51.058;6.922;2023-11-21T05:19:59;8.70;99.90
5009;DHT22;2523;51.058;6.922;2023-11-21T05:22:29;8.70;99.90
5009;DHT22;2523;51.058;6.922;2023-11-21T05:24:55;8.70;99.90
5009;DHT22;2523;51.058;6.922;2023-11-21T05:27:20;8.70;99.90
5009;DHT22;2523;51.058;6.922;2023-11-21T05:29:46;8.70;99.90
5009;DHT22;2523;51.058;6.922;2023-11-21T05:32:11;8.60;99.90
5009;DHT22;2523;51.058;6.922;2023-11-21T05:34:37;8.60;99.90
5009;DHT22;2523;51.058;6.922;2023-11-21T05:37:03;8.60;99.90
5009;DHT22;2523;51.058;6.922;2023-11-21T05:39:30;8.60;99.90
5009;DHT22;2523;51.058;6.922;2023-11-21T05:41:55;8.60;99.90
5009;DHT22;2523;51.058;6.922;2023-11-21T05:44:23;8.60;99.90
5009;DHT22;2523;51.058;6.922;2023-11-21T05:46:49;8.60;99.90
5009;DHT22;2523;51.058;6.922;2023-11-21T05:49:15;8.70;99.90
5009;DHT22;2523;51.058;6.922;2023-11-21T05:51:42;8.60;99.90
5009;DHT22;2523;51.058;6.922;2023-11-21T05:54:12;8.70;99.90
5009;DHT22;2523;51.058;6.922;2023-11-21T05:56:37;8.60;99.90
5009;DHT22;2523;51.058;6.922;2023-11-21T05:59:03;8.60;99.90
5009;DHT22;2523;51.058;6.922;2023-11-21T06:01:28;8.60;99.90
5009;DHT22;2523;51.058;6.922;2023-11-21T06:03:54;8.60;99.90
5009;DHT22;2523;51.058;6.922;2023-11-21T06:06:23;8.60;99.90
5009;DHT22;2523;51.058;6.922;2023-11-21T06:08:50;8.60;99.90
5009;DHT22;2523;51.058;6.922;2023-11-21T06:11:15;8.60;99.90
5009;DHT22;2523;51.058;6.922;2023-11-21T06:13:41;8.60;99.90
5009;DHT22;2523;51.058;6.922;2023-11-21T06:16:08;8.60;99.90
5009;DHT22;2523;51.058;6.922;2023-11-21T06:18:34;8.50;99.90
5009;DHT22;2523;51.058;6.922;2023-11-21T06:21:00;8.50;99.90
5009;DHT22;2523;51.058;6.922;2023-11-21T06:23:26;8.40;99.90
5009;DHT22;2523;51.058;6.922;2023-11-21T06:25:51;8.40;99.90
5009;DHT22;2523;51.058;6.922;2023-11-21T06:28:18;8.40;99.90
5009;DHT22;2523;51.058;6.922;2023-11-21T06:30:43;8.40;99.90
5009;DHT22;2523;51.058;6.922;2023-11-21T06:33:10;8.40;99.90
5009;DHT22;2523;51.058;6.922;2023-11-21T06:35:36;8.50;99.90
5009;DHT22;2523;51.058;6.922;2023-11-21T06:38:02;8.40;99.90
5009;DHT22;2523;51.058;6.922;2023-11-21T06:40:28;8.40;99.90
5009;DHT22;2523;51.058;6.922;2023-11-21T06:42:53;8.50;99.90
5009;DHT22;2523;51.058;6.922;2023-11-21T06:45:19;8.40;99.90
5009;DHT22;2523;51.058;6.922;2023-11-21T06:47:45;8.40;99.90
5009;DHT22;2523;51.058;6.922;2023-11-21T06:50:11;8.40;99.90
5009;DHT22;2523;51.058;6.922;2023-11-21T06:52:37;8.40;99.90
5009;DHT22;2523;51.058;6.922;2023-11-21T06:55:02;8.40;99.90
5009;DHT22;2523;51.058;6.922;2023-11-21T06:57:28;8.40;99.90
5009;DHT22;2523;51.058;6.922;2023-11-21T06:59:54;8.40;99.90
5009;DHT22;2523;51.058;6.922;2023-11-21T07:02:19;8.50;99.90
5009;DHT22;2523;51.058;6.922;2023-11-21T07:04:45;8.50;99.90
5009;DHT22;2523;51.058;6.922;2023-11-21T07:07:12;8.50;99.90
5009;DHT22;2523;51.058;6.922;2023-11-21T07:09:37;8.50;99.90
5009;DHT22;2523;51.058;6.922;2023-11-21T07:12:03;8.60;99.90
5009;DHT22;2523;51.058;6.922;2023-11-21T07:14:31;8.60;99.90
5009;DHT22;2523;51.058;6.922;2023-11-21T07:16:57;8.60;99.90
5009;DHT22;2523;51.058;6.922;2023-11-21T07:19:23;8.60;99.90
5009;DHT22;2523;51.058;6.922;2023-11-21T07:21:49;8.70;99.90
5009;DHT22;2523;51.058;6.922;2023-11-21T07:24:17;8.70;99.90
5009;DHT22;2523;51.058;6.922;2023-11-21T07:26:43;8.70;99.90
5009;DHT22;2523;51.058;6.922;2023-11-21T07:29:08;8.70;99.90
5009;DHT22;2523;51.058;6.922;2023-11-21T07:31:34;8.70;99.90
5009;DHT22;2523;51.058;6.922;2023-11-21T07:34:00;8.80;99.90
5009;DHT22;2523;51.058;6.922;2023-11-21T07:36:26;8.80;99.90
5009;DHT22;2523;51.058;6.922;2023-11-21T07:38:52;8.80;99.90
5009;DHT22;2523;51.058;6.922;2023-11-21T07:41:19;8.90;99.90
5009;DHT22;2523;51.058;6.922;2023-11-21T07:43:51;8.90;99.90
5009;DHT22;2523;51.058;6.922;2023-11-21T07:46:18;8.90;99.90
5009;DHT22;2523;51.058;6.922;2023-11-21T07:48:44;8.90;99.90
5009;DHT22;2523;51.058;6.922;2023-11-21T07:51:11;9.00;99.90
5009;DHT22;2523;51.058;6.922;2023-11-21T07:53:38;9.00;99.90
5009;DHT22;2523;51.058;6.922;2023-11-21T07:56:06;9.00;99.90
5009;DHT22;2523;51.058;6.922;2023-11-21T07:58:36;9.00;99.90
5009;DHT22;2523;51.058;6.922;2023-11-21T08:01:02;9.00;99.90
5009;DHT22;2523;51.058;6.922;2023-11-21T08:03:29;8.90;99.90
5009;DHT22;2523;51.058;6.922;2023-11-21T08:06:00;8.90;99.90
5009;DHT22;2523;51.058;6.922;2023-11-21T08:08:28;8.90;99.90
5009;DHT22;2523;51.058;6.922;2023-11-21T08:11:02;8.90;99.90
5009;DHT22;2523;51.058;6.922;2023-11-21T08:13:31;9.00;99.90
5009;DHT22;2523;51.058;6.922;2023-11-21T08:15:57;9.00;99.90
5009;DHT22;2523;51.058;6.922;2023-11-21T08:18:32;9.00;99.90
5009;DHT22;2523;51.058;6.922;2023-11-21T08:20:57;9.00;99.90
5009;DHT22;2523;51.058;6.922;2023-11-21T08:23:23;9.10;99.90
5009;DHT22;2523;51.058;6.922;2023-11-21T08:25:53;9.10;99.90
5009;DHT22;2523;51.058;6.922;2023-11-21T08:28:19;9.10;99.90
5009;DHT22;2523;51.058;6.922;2023-11-21T08:30:46;9.20;99.90
5009;DHT22;2523;51.058;6.922;2023-11-21T08:33:12;9.20;99.90
5009;DHT22;2523;51.058;6.922;2023-11-21T08:35:38;9.20;99.90
5009;DHT22;2523;51.058;6.922;2023-11-21T08:38:04;9.20;99.90
5009;DHT22;2523;51.058;6.922;2023-11-21T08:40:30;9.20;99.90
5009;DHT22;2523;51.058;6.922;2023-11-21T08:42:56;9.10;99.90
5009;DHT22;2523;51.058;6.922;2023-11-21T08:45:24;9.20;99.90
5009;DHT22;2523;51.058;6.922;2023-11-21T08:47:50;9.20;99.90
5009;DHT22;2523;51.058;6.922;2023-11-21T08:50:16;9.20;99.90
5009;DHT22;2523;51.058;6.922;2023-11-21T08:52:42;9.30;99.90
5009;DHT22;2523;51.058;6.922;2023-11-21T08:55:08;9.30;99.90
5009;DHT22;2523;51.058;6.922;2023-11-21T08:57:35;9.30;99.90
5009;DHT22;2523;51.058;6.922;2023-11-21T09:00:02;9.30;99.90
5009;DHT22;2523;51.058;6.922;2023-11-21T09:02:27;9.30;99.90
5009;DHT22;2523;51.058;6.922;2023-11-21T09:04:53;9.40;99.90
5009;DHT22;2523;51.058;6.922;2023-11-21T09:07:19;9.40;99.90
5009;DHT22;2523;51.058;6.922;2023-11-21T09:09:48;9.40;99.90
5009;DHT22;2523;51.058;6.922;2023-11-21T09:12:15;9.40;99.90
5009;DHT22;2523;51.058;6.922;2023-11-21T09:14:42;9.30;99.90
5009;DHT22;2523;51.058;6.922;2023-11-21T09:17:10;9.40;99.90
5009;DHT22;2523;51.058;6.922;2023-11-21T09:19:42;9.40;99.90
5009;DHT22;2523;51.058;6.922;2023-11-21T09:22:10;9.50;99.90
5009;DHT22;2523;51.058;6.922;2023-11-21T09:24:36;9.50;99.90
5009;DHT22;2523;51.058;6.922;2023-11-21T09:27:03;9.50;99.90
5009;DHT22;2523;51.058;6.922;2023-11-21T09:29:29;9.50;99.90
5009;DHT22;2523;51.058;6.922;2023-11-21T09:31:57;9.50;99.90
5009;DHT22;2523;51.058;6.922;2023-11-21T09:34:26;9.60;99.90
5009;DHT22;2523;51.058;6.922;2023-11-21T09:36:54;9.60;99.90
5009;DHT22;2523;51.058;6.922;2023-11-21T09:39:19;9.60;99.90
5009;DHT22;2523;51.058;6.922;2023-11-21T09:41:52;9.60;99.90
5009;DHT22;2523;51.058;6.922;2023-11-21T09:44:35;9.60;99.90
5009;DHT22;2523;51.058;6.922;2023-11-21T09:47:02;9.70;99.90
5009;DHT22;2523;51.058;6.922;2023-11-21T09:49:28;9.70;99.90
5009;DHT22;2523;51.058;6.922;2023-11-21T09:51:58;9.70;99.90
5009;DHT22;2523;51.058;6.922;2023-11-21T09:54:28;9.70;99.90
5009;DHT22;2523;51.058;6.922;2023-11-21T09:56:54;9.80;99.90
5009;DHT22;2523;51.058;6.922;2023-11-21T09:59:21;9.80;99.90
5009;DHT22;2523;51.058;6.922;2023-11-21T10:01:47;9.80;99.90
5009;DHT22;2523;51.058;6.922;2023-11-21T10:04:13;9.80;99.90
5009;DHT22;2523;51.058;6.922;2023-11-21T10:06:39;9.80;99.90
5009;DHT22;2523;51.058;6.922;2023-11-21T10:09:10;9.80;99.90
5009;DHT22;2523;51.058;6.922;2023-11-21T10:11:41;9.80;99.90
5009;DHT22;2523;51.058;6.922;2023-11-21T10:14:11;9.80;99.90
5009;DHT22;2523;51.058;6.922;2023-11-21T10:16:38;9.80;99.90
5009;DHT22;2523;51.058;6.922;2023-11-21T10:19:05;9.90;99.90
5009;DHT22;2523;51.058;6.922;2023-11-21T10:21:33;9.80;99.90
5009;DHT22;2523;51.058;6.922;2023-11-21T10:23:59;9.80;99.90
5009;DHT22;2523;51.058;6.922;2023-11-21T10:26:27;9.80;99.90
5009;DHT22;2523;51.058;6.922;2023-11-21T10:29:00;9.80;99.90
5009;DHT22;2523;51.058;6.922;2023-11-21T10:31:30;9.90;99.90
5009;DHT22;2523;51.058;6.922;2023-11-21T10:34:14;9.90;99.90
5009;DHT22;2523;51.058;6.922;2023-11-21T10:36:40;9.90;99.90
5009;DHT22;2523;51.058;6.922;2023-11-21T10:39:06;9.90;99.90
5009;DHT22;2523;51.058;6.922;2023-11-21T10:41:32;9.90;99.90
5009;DHT22;2523;51.058;6.922;2023-11-21T10:43:58;9.90;99.90
5009;DHT22;2523;51.058;6.922;2023-11-21T10:46:27;9.90;99.90
5009;DHT22;2523;51.058;6.922;2023-11-21T10:48:56;9.90;99.90
5009;DHT22;2523;51.058;6.922;2023-11-21T10:51:22;9.90;99.90
5009;DHT22;2523;51.058;6.922;2023-11-21T10:53:51;10.00;99.90
5009;DHT22;2523;51.058;6.922;2023-11-21T10:56:18;9.90;99.90
5009;DHT22;2523;51.058;6.922;2023-11-21T10:58:48;9.90;99.90
5009;DHT22;2523;51.058;6.922;2023-11-21T11:01:17;10.00;99.90
5009;DHT22;2523;51.058;6.922;2023-11-21T11:03:44;10.00;99.90
5009;DHT22;2523;51.058;6.922;2023-11-21T11:06:10;10.00;99.90
5009;DHT22;2523;51.058;6.922;2023-11-21T11:08:38;10.10;99.90
5009;DHT22;2523;51.058;6.922;2023-11-21T11:11:05;10.10;99.90
5009;DHT22;2523;51.058;6.922;2023-11-21T11:13:32;10.00;99.90
5009;DHT22;2523;51.058;6.922;2023-11-21T11:16:01;10.00;99.90
5009;DHT22;2523;51.058;6.922;2023-11-21T11:18:28;10.00;99.90
5009;DHT22;2523;51.058;6.922;2023-11-21T11:21:07;10.00;99.90
5009;DHT22;2523;51.058;6.922;2023-11-21T11:26:29;10.00;99.90
5009;DHT22;2523;51.058;6.922;2023-11-21T11:29:08;10.00;99.90
5009;DHT22;2523;51.058;6.922;2023-11-21T11:31:49;10.10;99.90
5009;DHT22;2523;51.058;6.922;2023-11-21T11:34:33;10.20;99.90
5009;DHT22;2523;51.058;6.922;2023-11-21T11:37:06;10.30;99.90
5009;DHT22;2523;51.058;6.922;2023-11-21T11:39:41;10.20;99.90
5009;DHT22;2523;51.058;6.922;2023-11-21T11:42:12;10.40;99.90
5009;DHT22;2523;51.058;6.922;2023-11-21T11:52:53;10.40;99.90
5009;DHT22;2523;51.058;6.922;2023-11-21T11:55:23;10.40;99.90
5009;DHT22;2523;51.058;6.922;2023-11-21T11:57:54;10.40;99.90
5009;DHT22;2523;51.058;6.922;2023-11-21T12:03:01;10.40;99.90
5009;DHT22;2523;51.058;6.922;2023-11-21T12:05:32;10.30;99.90
5009;DHT22;2523;51.058;6.922;2023-11-21T12:08:02;10.40;99.90
5009;DHT22;2523;51.058;6.922;2023-11-21T12:10:34;10.30;99.90
5009;DHT22;2523;51.058;6.922;2023-11-21T12:13:07;10.30;99.90
5009;DHT22;2523;51.058;6.922;2023-11-21T12:15:34;10.30;99.90
5009;DHT22;2523;51.058;6.922;2023-11-21T12:18:01;10.30;99.90
5009;DHT22;2523;51.058;6.922;2023-11-21T12:20:27;10.40;99.90
5009;DHT22;2523;51.058;6.922;2023-11-21T12:22:53;10.40;99.90
5009;DHT22;2523;51.058;6.922;2023-11-21T12:25:21;10.40;99.90
5009;DHT22;2523;51.058;6.922;2023-11-21T12:27:48;10.40;99.90
5009;DHT22;2523;51.058;6.922;2023-11-21T12:30:20;10.40;99.90
5009;DHT22;2523;51.058;6.922;2023-11-21T12:32:53;10.30;99.90
5009;DHT22;2523;51.058;6.922;2023-11-21T12:35:24;10.30;99.90
5009;DHT22;2523;51.058;6.922;2023-11-21T12:37:51;10.40;99.90
5009;DHT22;2523;51.058;6.922;2023-11-21T12:40:17;10.40;99.90
5009;DHT22;2523;51.058;6.922;2023-11-21T12:42:47;10.40;99.90
5009;DHT22;2523;51.058;6.922;2023-11-21T12:50:28;10.50;99.90
5009;DHT22;2523;51.058;6.922;2023-11-21T12:53:05;10.50;99.90
5009;DHT22;2523;51.058;6.922;2023-11-21T12:55:34;10.50;99.90
5009;DHT22;2523;51.058;6.922;2023-11-21T12:58:03;10.50;99.90
5009;DHT22;2523;51.058;6.922;2023-11-21T13:00:40;10.50;99.90
5009;DHT22;2523;51.058;6.922;2023-11-21T13:03:08;10.60;99.90
5009;DHT22;2523;51.058;6.922;2023-11-21T13:05:36;10.60;99.90
5009;DHT22;2523;51.058;6.922;2023-11-21T13:08:08;10.60;99.90
5009;DHT22;2523;51.058;6.922;2023-11-21T13:10:36;10.60;99.90
5009;DHT22;2523;51.058;6.922;2023-11-21T13:13:06;10.50;99.90
5009;DHT22;2523;51.058;6.922;2023-11-21T13:15:34;10.60;99.90
5009;DHT22;2523;51.058;6.922;2023-11-21T13:18:02;10.50;99.90
5009;DHT22;2523;51.058;6.922;2023-11-21T13:20:28;10.50;99.90
5009;DHT22;2523;51.058;6.922;2023-11-21T13:22:56;10.50;99.90
5009;DHT22;2523;51.058;6.922;2023-11-21T13:25:27;10.50;99.90
5009;DHT22;2523;51.058;6.922;2023-11-21T13:27:56;10.50;99.90
5009;DHT22;2523;51.058;6.922;2023-11-21T13:33:44;10.60;99.90
5009;DHT22;2523;51.058;6.922;2023-11-21T13:39:38;10.60;99.90
5009;DHT22;2523;51.058;6.922;2023-11-21T13:42:10;10.60;99.90
5009;DHT22;2523;51.058;6.922;2023-11-21T13:54:43;10.50;99.90
5009;DHT22;2523;51.058;6.922;2023-11-21T14:00:30;10.50;99.90
5009;DHT22;2523;51.058;6.922;2023-11-21T14:03:07;10.50;99.90
5009;DHT22;2523;51.058;6.922;2023-11-21T14:05:43;10.50;99.90
5009;DHT22;2523;51.058;6.922;2023-11-21T14:08:09;10.50;99.90
5009;DHT22;2523;51.058;6.922;2023-11-21T14:10:37;10.60;99.90
5009;DHT22;2523;51.058;6.922;2023-11-21T14:13:08;10.60;99.90
5009;DHT22;2523;51.058;6.922;2023-11-21T14:15:36;10.60;99.90
5009;DHT22;2523;51.058;6.922;2023-11-21T14:18:07;10.60;99.90
5009;DHT22;2523;51.058;6.922;2023-11-21T14:20:38;10.60;99.90
5009;DHT22;2523;51.058;6.922;2023-11-21T14:23:05;10.60;99.90
5009;DHT22;2523;51.058;6.922;2023-11-21T14:32:16;10.70;99.90
5009;DHT22;2523;51.058;6.922;2023-11-21T14:34:42;10.70;99.90
5009;DHT22;2523;51.058;6.922;2023-11-21T14:37:13;10.70;99.90
5009;DHT22;2523;51.058;6.922;2023-11-21T14:39:40;10.70;99.90
5009;DHT22;2523;51.058;6.922;2023-11-21T14:42:11;10.70;99.90
5009;DHT22;2523;51.058;6.922;2023-11-21T14:58:07;10.50;99.90
5009;DHT22;2523;51.058;6.922;2023-11-21T15:00:38;10.40;99.90
5009;DHT22;2523;51.058;6.922;2023-11-21T15:03:11;10.40;99.90
5009;DHT22;2523;51.058;6.922;2023-11-21T15:05:56;10.40;99.90
5009;DHT22;2523;51.058;6.922;2023-11-21T15:08:22;10.40;99.90
5009;DHT22;2523;51.058;6.922;2023-11-21T15:10:55;10.30;99.90
5009;DHT22;2523;51.058;6.922;2023-11-21T15:13:21;10.30;99.90
5009;DHT22;2523;51.058;6.922;2023-11-21T15:15:50;10.30;99.90
5009;DHT22;2523;51.058;6.922;2023-11-21T15:18:15;10.30;99.90
5009;DHT22;2523;51.058;6.922;2023-11-21T15:20:41;10.30;99.90
5009;DHT22;2523;51.058;6.922;2023-11-21T15:23:08;10.20;99.90
5009;DHT22;2523;51.058;6.922;2023-11-21T15:25:34;10.20;99.90
5009;DHT22;2523;51.058;6.922;2023-11-21T15:28:02;10.20;99.90
5009;DHT22;2523;51.058;6.922;2023-11-21T15:30:29;10.10;99.90
5009;DHT22;2523;51.058;6.922;2023-11-21T15:50:34;10.00;99.90
5009;DHT22;2523;51.058;6.922;2023-11-21T15:53:03;10.00;99.90
5009;DHT22;2523;51.058;6.922;2023-11-21T16:14:55;9.90;99.90
5009;DHT22;2523;51.058;6.922;2023-11-21T16:43:30;9.60;99.90
5009;DHT22;2523;51.058;6.922;2023-11-21T16:45:55;9.70;99.90
5009;DHT22;2523;51.058;6.922;2023-11-21T16:48:21;9.70;99.90
5009;DHT22;2523;51.058;6.922;2023-11-21T16:50:46;9.60;99.90
5009;DHT22;2523;51.058;6.922;2023-11-21T16:53:12;9.60;99.90
5009;DHT22;2523;51.058;6.922;2023-11-21T16:55:41;9.60;99.90
5009;DHT22;2523;51.058;6.922;2023-11-21T17:04:51;9.60;99.90
5009;DHT22;2523;51.058;6.922;2023-11-21T17:13:14;9.50;99.90
5009;DHT22;2523;51.058;6.922;2023-11-21T17:15:43;9.50;99.90
5009;DHT22;2523;51.058;6.922;2023-11-21T17:18:08;9.50;99.90
5009;DHT22;2523;51.058;6.922;2023-11-21T17:20:34;9.50;99.90
5009;DHT22;2523;51.058;6.922;2023-11-21T17:22:59;9.50;99.90
5009;DHT22;2523;51.058;6.922;2023-11-21T17:25:28;9.40;99.90
5009;DHT22;2523;51.058;6.922;2023-11-21T17:27:53;9.40;99.90
5009;DHT22;2523;51.058;6.922;2023-11-21T17:30:21;9.40;99.90
5009;DHT22;2523;51.058;6.922;2023-11-21T17:32:47;9.30;99.90
5009;DHT22;2523;51.058;6.922;2023-11-21T17:35:13;9.30;99.90
5009;DHT22;2523;51.058;6.922;2023-11-21T17:41:10;9.20;99.90
5009;DHT22;2523;51.058;6.922;2023-11-21T17:43:39;9.10;99.90
5009;DHT22;2523;51.058;6.922;2023-11-21T17:46:07;9.10;99.90
5009;DHT22;2523;51.058;6.922;2023-11-21T17:48:33;9.00;99.90
5009;DHT22;2523;51.058;6.922;2023-11-21T17:51:01;9.00;99.90
5009;DHT22;2523;51.058;6.922;2023-11-21T17:53:26;9.00;99.90
5009;DHT22;2523;51.058;6.922;2023-11-21T17:55:52;8.90;99.90
5009;DHT22;2523;51.058;6.922;2023-11-21T18:01:40;8.90;99.90
5009;DHT22;2523;51.058;6.922;2023-11-21T18:04:07;8.80;99.90
5009;DHT22;2523;51.058;6.922;2023-11-21T18:09:57;8.80;99.90
5009;DHT22;2523;51.058;6.922;2023-11-21T18:12:23;8.70;99.90
5009;DHT22;2523;51.058;6.922;2023-11-21T18:14:50;8.60;99.90
5009;DHT22;2523;51.058;6.922;2023-11-21T18:17:17;8.60;99.90
5009;DHT22;2523;51.058;6.922;2023-11-21T18:19:43;8.60;99.90
5009;DHT22;2523;51.058;6.922;2023-11-21T18:22:09;8.50;99.90
5009;DHT22;2523;51.058;6.922;2023-11-21T18:24:36;8.50;99.90
5009;DHT22;2523;51.058;6.922;2023-11-21T18:27:02;8.50;99.90
5009;DHT22;2523;51.058;6.922;2023-11-21T18:29:30;8.40;99.90
5009;DHT22;2523;51.058;6.922;2023-11-21T18:31:55;8.50;99.90
5009;DHT22;2523;51.058;6.922;2023-11-21T18:34:21;8.50;99.90
5009;DHT22;2523;51.058;6.922;2023-11-21T18:36:47;8.40;99.90
5009;DHT22;2523;51.058;6.922;2023-11-21T18:39:13;8.30;99.90
5009;DHT22;2523;51.058;6.922;2023-11-21T18:41:41;8.30;99.90